Main page
METAR-TAF:

METAR-TAF

Airports :

Base Aérea de Armilla

Granada, Spain

latitude: 37-08N, longitude: 003-38-08W, elevation: 700 m

Current weather observation

The report was made 2 hours and 43 minutes ago, at 13:00 UTC
Wind 8 kt from the West/Northwest, varying between Southwest and North
Temperature 22°C
Humidity 33%
Pressure 1014 hPa
Visibility 10 km or more
Few clouds at a height of 6200 ft

METAR: LEGA 201300Z 29008KT 230V350 9999 FEW062 22/05 Q1014

Time: 17:43 (15:43 UTC)

Forecast

The report was made 4 hours and 43 minutes ago, at 11:00 UTC
Forecast valid from 20 at 12 UTC to 21 at 12 UTC
Wind 10 kt from the Northwest
Visibility 10 km or more
no clouds below 1500 m and no cumulonimbus
Becoming
from 20 at 18 UTC to 20 at 21 UTC
Wind 2 kt from variable directions

TAF: LEGA 201100Z 2012/2112 31010KT CAVOK TX22/2014Z TN08/2106Z BECMG 2018/2021 VRB02KT

Weather observations and forecasts of more than 4000 airports (METAR and TAF reports).

The available stations are represented by yellow and red dots on the map.

Hover mouse over dot to see the name of the station.

Then click to see weather observations and forecasts.

To change the map : click on the green buttons with a black cross to zoom in, on the green button with a dash to zoom out, or on the green arrows for adjacent maps.


METAR-TAF: